Time;durP1;ratioP1;P1;durP2;ratioP2;P2;SDS_P1;SDS_P2;PMS_P1;PMS_P2;Temp;Humidity;BMP_temperature;BMP_pressure;BME280_temperature;BME280_humidity;BME280_pressure;Samples;Min_cycle;Max_cycle;Signal;HPM_P1;HPM_P2
2022/10/30 00:01:06;;;;;;;3.80;0.93;;;;;;;;;;5092312;28;20138;-51
2022/10/30 00:03:36;;;;;;;6.47;2.83;;;;;;;;;;5091781;28;20048;-54
2022/10/30 00:06:08;;;;;;;2.55;1.33;;;;;;;;;;5092590;28;20055;-52
2022/10/30 00:08:38;;;;;;;4.88;1.30;;;;;;;;;;5092665;28;20048;-52
2022/10/30 00:11:07;;;;;;;3.88;1.38;;;;;;;;;;5091234;28;20052;-52
2022/10/30 00:13:38;;;;;;;3.58;1.58;;;;;;;;;;5092088;28;20044;-53
2022/10/30 00:16:10;;;;;;;4.43;1.40;;;;;;;;;;5091038;28;20052;-50
2022/10/30 00:18:38;;;;;;;3.47;1.10;;;;;;;;;;5091572;28;20169;-50
2022/10/30 00:21:23;;;;;;;2.78;1.27;;;;;;;;;;5078251;28;20051;-52
2022/10/30 00:23:53;;;;;;;4.07;0.98;;;;;;;;;;5092117;28;20052;-51
2022/10/30 00:26:24;;;;;;;3.65;0.85;;;;;;;;;;5092249;28;20052;-53
2022/10/30 00:28:56;;;;;;;2.38;0.90;;;;;;;;;;5092343;28;20044;-50
2022/10/30 00:31:25;;;;;;;3.42;1.00;;;;;;;;;;5091917;28;20535;-51
2022/10/30 00:33:53;;;;;;;5.63;1.50;;;;;;;;;;5087707;28;20044;-55
2022/10/30 00:36:34;;;;;;;2.63;0.90;;;;;;;;;;5091806;28;20081;-51
2022/10/30 00:39:05;;;;;;;3.10;1.10;;;;;;;;;;5092207;28;20528;-51
2022/10/30 00:41:32;;;;;;;2.53;0.70;;;;;;;;;;5092576;28;20055;-52
2022/10/30 00:44:00;;;;;;;3.83;1.13;;;;;;;;;;5090660;28;20056;-55
2022/10/30 00:46:39;;;;;;;5.30;1.38;;;;;;;;;;5089600;28;20048;-51
2022/10/30 00:49:10;;;;;;;3.95;1.02;;;;;;;;;;5088535;28;20452;-56
2022/10/30 00:51:41;;;;;;;2.97;1.30;;;;;;;;;;5092303;28;20059;-52
2022/10/30 00:54:12;;;;;;;3.47;1.42;;;;;;;;;;5091586;28;20048;-56
2022/10/30 00:56:42;;;;;;;4.10;1.40;;;;;;;;;;5091889;28;20516;-54
2022/10/30 00:59:11;;;;;;;2.65;0.82;;;;;;;;;;5081156;28;20048;-52
2022/10/30 01:01:47;;;;;;;2.97;0.90;;;;;;;;;;5090742;28;20360;-54
2022/10/30 01:04:18;;;;;;;2.65;0.80;;;;;;;;;;5092060;28;20052;-53
2022/10/30 01:07:04;;;;;;;5.30;1.10;;;;;;;;;;5084549;28;20349;-56
2022/10/30 01:09:35;;;;;;;4.63;1.48;;;;;;;;;;5095403;28;20052;-55
2022/10/30 01:12:03;;;;;;;3.80;1.02;;;;;;;;;;5080439;28;20658;-56
2022/10/30 01:14:31;;;;;;;3.75;1.08;;;;;;;;;;5089456;28;20043;-56
2022/10/30 01:17:10;;;;;;;2.75;0.88;;;;;;;;;;5094313;28;20101;-57
2022/10/30 01:19:44;;;;;;;2.88;0.80;;;;;;;;;;5089187;28;20047;-56
2022/10/30 01:22:25;;;;;;;2.20;0.70;;;;;;;;;;5094798;28;20044;-52
2022/10/30 01:25:06;;;;;;;4.22;1.00;;;;;;;;;;5093164;28;20043;-54
2022/10/30 01:27:39;;;;;;;2.10;0.90;;;;;;;;;;5095147;28;20059;-57
2022/10/30 01:30:29;;;;;;;4.70;1.30;;;;;;;;;;5094848;28;20055;-54
2022/10/30 01:33:07;;;;;;;1.88;0.75;;;;;;;;;;5093481;28;20048;-56
2022/10/30 01:35:36;;;;;;;3.65;1.10;;;;;;;;;;5088115;28;20079;-56
2022/10/30 01:38:07;;;;;;;1.98;0.98;;;;;;;;;;5089246;28;20054;-53
2022/10/30 01:40:36;;;;;;;5.25;0.95;;;;;;;;;;5094043;28;20127;-51
2022/10/30 01:43:04;;;;;;;3.28;1.05;;;;;;;;;;5094137;28;20533;-54
2022/10/30 01:45:41;;;;;;;4.57;1.13;;;;;;;;;;5094310;28;20048;-54
2022/10/30 01:48:25;;;;;;;2.72;1.08;;;;;;;;;;5094967;28;20052;-52
2022/10/30 01:51:03;;;;;;;3.45;1.10;;;;;;;;;;5094824;28;20370;-54
2022/10/30 01:53:40;;;;;;;2.45;1.10;;;;;;;;;;5089763;28;20044;-56
2022/10/30 01:56:15;;;;;;;4.30;1.42;;;;;;;;;;5091569;28;20411;-57
2022/10/30 01:58:44;;;;;;;2.45;0.80;;;;;;;;;;5089964;28;20052;-53
2022/10/30 02:01:13;;;;;;;8.27;1.48;;;;;;;;;;5089858;28;20055;-55
2022/10/30 02:03:40;;;;;;;3.88;1.15;;;;;;;;;;5086011;28;20066;-51
2022/10/30 02:06:09;;;;;;;3.60;1.20;;;;;;;;;;5092903;28;20059;-52
2022/10/30 02:08:35;;;;;;;5.28;1.05;;;;;;;;;;5093073;28;20362;-51
2022/10/30 02:11:03;;;;;;;6.45;1.30;;;;;;;;;;5093849;28;20071;-53
2022/10/30 02:13:37;;;;;;;5.05;1.40;;;;;;;;;;5090145;28;20067;-51
2022/10/30 02:16:08;;;;;;;4.32;1.35;;;;;;;;;;5089396;28;20055;-51
2022/10/30 02:18:39;;;;;;;4.65;1.27;;;;;;;;;;5093597;28;20066;-52
2022/10/30 02:21:16;;;;;;;5.70;1.38;;;;;;;;;;5093511;28;20373;-53
2022/10/30 02:23:44;;;;;;;6.70;2.22;;;;;;;;;;5093203;28;20388;-52
2022/10/30 02:26:11;;;;;;;3.88;1.25;;;;;;;;;;5093610;28;20468;-50
2022/10/30 02:28:42;;;;;;;4.50;1.40;;;;;;;;;;5093436;28;20051;-51
2022/10/30 02:31:11;;;;;;;3.97;1.08;;;;;;;;;;5093098;28;20515;-52
2022/10/30 02:33:40;;;;;;;3.00;1.20;;;;;;;;;;5081469;28;20052;-51
2022/10/30 02:36:14;;;;;;;2.80;1.13;;;;;;;;;;5093874;28;20055;-52
2022/10/30 02:38:41;;;;;;;3.92;1.23;;;;;;;;;;5092843;28;20070;-51
2022/10/30 02:41:10;;;;;;;6.28;1.38;;;;;;;;;;5093738;28;20056;-51
2022/10/30 02:43:39;;;;;;;3.25;1.33;;;;;;;;;;5093206;28;20084;-53
2022/10/30 02:46:06;;;;;;;3.42;1.20;;;;;;;;;;5093767;28;20121;-50
2022/10/30 02:48:36;;;;;;;2.95;1.20;;;;;;;;;;5092415;28;20056;-50
2022/10/30 02:51:06;;;;;;;7.55;1.42;;;;;;;;;;5092852;28;20056;-54
2022/10/30 02:53:39;;;;;;;5.32;0.95;;;;;;;;;;5092768;28;20433;-51
2022/10/30 02:56:08;;;;;;;2.45;1.00;;;;;;;;;;5085034;28;20051;-54
2022/10/30 02:58:35;;;;;;;3.13;1.30;;;;;;;;;;5092201;28;20048;-50
2022/10/30 03:01:09;;;;;;;3.92;1.00;;;;;;;;;;5092994;28;20055;-51
2022/10/30 03:03:36;;;;;;;3.15;1.33;;;;;;;;;;5091357;28;20112;-51
2022/10/30 03:06:06;;;;;;;3.25;0.93;;;;;;;;;;5090095;28;20055;-51
2022/10/30 03:08:32;;;;;;;4.22;1.25;;;;;;;;;;5093393;28;20055;-50
2022/10/30 03:11:03;;;;;;;3.60;1.00;;;;;;;;;;5088282;28;20412;-52
2022/10/30 03:13:31;;;;;;;4.07;1.13;;;;;;;;;;5083799;28;20703;-53
2022/10/30 03:16:04;;;;;;;3.95;1.27;;;;;;;;;;5093215;28;20097;-52
2022/10/30 03:18:32;;;;;;;5.20;1.20;;;;;;;;;;5092507;28;20047;-54
2022/10/30 03:21:05;;;;;;;3.70;1.00;;;;;;;;;;5092716;28;20067;-54
2022/10/30 03:23:46;;;;;;;2.80;1.15;;;;;;;;;;5092806;28;20044;-51
2022/10/30 03:26:27;;;;;;;4.68;1.10;;;;;;;;;;5081600;28;20064;-50
2022/10/30 03:28:57;;;;;;;3.50;0.93;;;;;;;;;;5080202;28;20109;-51
2022/10/30 03:31:26;;;;;;;3.70;1.02;;;;;;;;;;5091496;28;20091;-54
2022/10/30 03:33:55;;;;;;;3.28;1.45;;;;;;;;;;5092539;28;20097;-54
2022/10/30 03:36:23;;;;;;;4.72;1.30;;;;;;;;;;5092361;28;20411;-51
2022/10/30 03:38:51;;;;;;;3.92;1.23;;;;;;;;;;5091747;28;20054;-54
2022/10/30 03:41:21;;;;;;;2.40;1.02;;;;;;;;;;5092613;28;20153;-51
2022/10/30 03:43:47;;;;;;;4.82;1.40;;;;;;;;;;5089952;28;20060;-52
2022/10/30 03:46:16;;;;;;;3.22;1.02;;;;;;;;;;5092792;28;20063;-53
2022/10/30 03:48:45;;;;;;;2.67;1.10;;;;;;;;;;5092542;28;20040;-51
2022/10/30 03:51:12;;;;;;;4.97;1.27;;;;;;;;;;5092436;28;20064;-53
2022/10/30 03:53:38;;;;;;;3.72;1.10;;;;;;;;;;5091578;28;20044;-52
2022/10/30 03:56:06;;;;;;;3.40;0.90;;;;;;;;;;5091813;28;20056;-51
2022/10/30 03:58:36;;;;;;;3.40;1.20;;;;;;;;;;5091949;28;20048;-51
2022/10/30 04:01:05;;;;;;;3.17;1.73;;;;;;;;;;5091736;28;20052;-52
2022/10/30 04:03:34;;;;;;;1.70;1.02;;;;;;;;;;5092374;28;20470;-54
2022/10/30 04:06:01;;;;;;;3.03;1.00;;;;;;;;;;5091564;28;20055;-54
2022/10/30 04:08:38;;;;;;;2.38;1.00;;;;;;;;;;5091400;28;20453;-52
2022/10/30 04:11:04;;;;;;;4.85;1.17;;;;;;;;;;5086561;28;20044;-51
2022/10/30 04:13:33;;;;;;;5.10;1.17;;;;;;;;;;5090350;28;20048;-53
2022/10/30 04:16:03;;;;;;;6.00;1.10;;;;;;;;;;5092563;28;20071;-53
2022/10/30 04:18:31;;;;;;;3.05;1.13;;;;;;;;;;5079524;28;20063;-51
2022/10/30 04:21:00;;;;;;;4.05;1.20;;;;;;;;;;5092032;28;20048;-51
2022/10/30 04:23:26;;;;;;;3.72;1.30;;;;;;;;;;5092561;28;20063;-53
2022/10/30 04:25:54;;;;;;;2.75;0.90;;;;;;;;;;5091616;28;20476;-53
2022/10/30 04:28:23;;;;;;;3.88;1.00;;;;;;;;;;5088930;28;20090;-51
2022/10/30 04:30:53;;;;;;;5.20;1.30;;;;;;;;;;5091032;28;20056;-51
2022/10/30 04:33:30;;;;;;;4.43;1.35;;;;;;;;;;5091508;28;20063;-50
2022/10/30 04:36:00;;;;;;;4.13;1.63;;;;;;;;;;5091723;28;20357;-54
2022/10/30 04:38:27;;;;;;;3.22;1.23;;;;;;;;;;5091508;28;20052;-52
2022/10/30 04:40:55;;;;;;;6.55;1.60;;;;;;;;;;5085929;28;20062;-52
2022/10/30 04:43:24;;;;;;;3.72;1.35;;;;;;;;;;5093454;28;20499;-53
2022/10/30 04:45:53;;;;;;;4.40;1.50;;;;;;;;;;5095275;28;20447;-52
2022/10/30 04:48:20;;;;;;;2.33;0.95;;;;;;;;;;5095530;28;20461;-51
2022/10/30 04:50:49;;;;;;;4.75;1.20;;;;;;;;;;5096283;28;20056;-53
2022/10/30 04:53:20;;;;;;;3.13;1.30;;;;;;;;;;5095581;28;20044;-53
2022/10/30 04:55:49;;;;;;;3.38;1.33;;;;;;;;;;5095520;28;20362;-50
2022/10/30 04:58:19;;;;;;;3.63;1.33;;;;;;;;;;5094284;28;20056;-51
2022/10/30 05:00:47;;;;;;;3.75;1.13;;;;;;;;;;5094933;28;20051;-51
2022/10/30 05:03:18;;;;;;;3.10;1.38;;;;;;;;;;5082076;28;20464;-52
2022/10/30 05:05:47;;;;;;;3.70;1.30;;;;;;;;;;5094947;28;20079;-53
2022/10/30 05:08:17;;;;;;;3.55;1.20;;;;;;;;;;5095328;28;20080;-54
2022/10/30 05:10:47;;;;;;;5.53;1.40;;;;;;;;;;5088046;28;20041;-54
2022/10/30 05:13:15;;;;;;;4.28;1.40;;;;;;;;;;5090283;28;20501;-51
2022/10/30 05:15:43;;;;;;;6.22;1.50;;;;;;;;;;5094673;28;20048;-52
2022/10/30 05:18:10;;;;;;;4.25;1.38;;;;;;;;;;5094357;28;20048;-51
2022/10/30 05:20:39;;;;;;;4.68;1.65;;;;;;;;;;5094771;28;20055;-51
2022/10/30 05:23:09;;;;;;;3.13;1.10;;;;;;;;;;5089905;28;20056;-51
2022/10/30 05:25:42;;;;;;;4.55;1.50;;;;;;;;;;5085011;28;20429;-50
2022/10/30 05:28:10;;;;;;;4.32;1.73;;;;;;;;;;5094464;28;20468;-51
2022/10/30 05:30:36;;;;;;;4.40;1.73;;;;;;;;;;5094377;28;20540;-50
2022/10/30 05:33:06;;;;;;;7.22;2.30;;;;;;;;;;5093890;28;20063;-51
2022/10/30 05:35:35;;;;;;;5.03;1.80;;;;;;;;;;5093765;28;20148;-52
2022/10/30 05:38:03;;;;;;;3.42;1.70;;;;;;;;;;5081405;28;20054;-52
2022/10/30 05:40:31;;;;;;;3.72;1.80;;;;;;;;;;5094699;28;20058;-54
2022/10/30 05:43:01;;;;;;;6.53;1.83;;;;;;;;;;5093980;28;20473;-50
2022/10/30 05:45:31;;;;;;;7.13;1.83;;;;;;;;;;5094303;28;20044;-52
2022/10/30 05:48:00;;;;;;;3.78;1.52;;;;;;;;;;5094690;28;20044;-50
2022/10/30 05:50:31;;;;;;;3.97;1.75;;;;;;;;;;5081280;28;20134;-54
2022/10/30 05:53:01;;;;;;;3.33;1.35;;;;;;;;;;5093239;28;20128;-51
2022/10/30 05:55:31;;;;;;;4.25;1.30;;;;;;;;;;5093557;28;20048;-51
2022/10/30 05:58:01;;;;;;;3.78;1.33;;;;;;;;;;5095227;28;20146;-51
2022/10/30 06:00:31;;;;;;;3.63;1.35;;;;;;;;;;5094004;28;20520;-54
2022/10/30 06:03:01;;;;;;;4.15;1.38;;;;;;;;;;5094504;28;20060;-51
2022/10/30 06:05:30;;;;;;;5.13;1.40;;;;;;;;;;5093136;28;20047;-51
2022/10/30 06:07:57;;;;;;;4.20;1.35;;;;;;;;;;5093921;28;20048;-51
2022/10/30 06:10:28;;;;;;;4.88;1.58;;;;;;;;;;5094030;28;20063;-51
2022/10/30 06:12:54;;;;;;;8.60;2.67;;;;;;;;;;5093479;28;20126;-54
2022/10/30 06:15:25;;;;;;;10.50;3.90;;;;;;;;;;5081479;28;20508;-51
2022/10/30 06:17:52;;;;;;;8.02;3.35;;;;;;;;;;5093805;28;20058;-53
2022/10/30 06:20:28;;;;;;;6.30;2.17;;;;;;;;;;5093954;28;20062;-51
2022/10/30 06:22:58;;;;;;;5.50;2.10;;;;;;;;;;5093038;28;20056;-53
2022/10/30 06:25:27;;;;;;;6.18;2.22;;;;;;;;;;5081856;28;20062;-53
2022/10/30 06:27:53;;;;;;;6.13;2.15;;;;;;;;;;5094110;28;20044;-54
2022/10/30 06:30:21;;;;;;;5.35;1.80;;;;;;;;;;5091755;28;20135;-55
2022/10/30 06:32:51;;;;;;;8.25;2.63;;;;;;;;;;5086179;28;20056;-55
2022/10/30 06:35:19;;;;;;;5.60;1.90;;;;;;;;;;5080810;28;20491;-52
2022/10/30 06:37:47;;;;;;;4.90;1.65;;;;;;;;;;5093246;28;20050;-54
2022/10/30 06:40:24;;;;;;;4.25;2.05;;;;;;;;;;5093449;28;20048;-54
2022/10/30 06:43:00;;;;;;;5.70;2.45;;;;;;;;;;5090461;28;20142;-54
2022/10/30 06:45:27;;;;;;;8.23;3.35;;;;;;;;;;5093857;28;20097;-54
2022/10/30 06:48:07;;;;;;;7.35;2.80;;;;;;;;;;5087143;28;20044;-55
2022/10/30 06:50:37;;;;;;;7.28;2.88;;;;;;;;;;5088415;28;20052;-55
2022/10/30 06:53:06;;;;;;;3.95;2.40;;;;;;;;;;5092695;28;20052;-56
2022/10/30 06:55:42;;;;;;;10.60;2.90;;;;;;;;;;5090409;28;20048;-56
2022/10/30 06:58:10;;;;;;;7.18;3.08;;;;;;;;;;5084792;28;20082;-55
2022/10/30 07:00:39;;;;;;;5.82;2.72;;;;;;;;;;5092481;28;20048;-55
2022/10/30 07:03:09;;;;;;;8.55;3.42;;;;;;;;;;5092214;28;20480;-53
2022/10/30 07:05:36;;;;;;;6.85;2.75;;;;;;;;;;5092284;28;20048;-52
2022/10/30 07:08:11;;;;;;;6.55;3.50;;;;;;;;;;5093116;28;20064;-53
2022/10/30 07:10:41;;;;;;;4.68;2.88;;;;;;;;;;5089413;28;20131;-52
2022/10/30 07:13:11;;;;;;;5.22;2.28;;;;;;;;;;5091213;28;20051;-52
2022/10/30 07:15:39;;;;;;;8.30;2.53;;;;;;;;;;5092558;28;20036;-53
2022/10/30 07:18:09;;;;;;;3.05;1.77;;;;;;;;;;5085835;28;20052;-55
2022/10/30 07:20:38;;;;;;;4.80;2.13;;;;;;;;;;5092758;28;20699;-56
2022/10/30 07:23:04;;;;;;;3.30;1.60;;;;;;;;;;5092807;28;20048;-56
2022/10/30 07:25:34;;;;;;;4.03;1.98;;;;;;;;;;5086576;28;20040;-57
2022/10/30 07:28:03;;;;;;;3.67;2.17;;;;;;;;;;5092635;28;20048;-56
2022/10/30 07:30:32;;;;;;;3.60;1.90;;;;;;;;;;5093000;28;20143;-54
2022/10/30 07:33:08;;;;;;;5.45;2.10;;;;;;;;;;5090960;28;20050;-55
2022/10/30 07:35:38;;;;;;;4.68;2.15;;;;;;;;;;5092620;28;20058;-53
2022/10/30 07:38:16;;;;;;;3.90;2.05;;;;;;;;;;5090233;28;20067;-52
2022/10/30 07:40:46;;;;;;;5.50;2.20;;;;;;;;;;5092490;28;20062;-53
2022/10/30 07:43:14;;;;;;;5.90;2.15;;;;;;;;;;5082507;28;20135;-56
2022/10/30 07:45:52;;;;;;;7.10;3.10;;;;;;;;;;5093058;28;20101;-56
2022/10/30 07:48:22;;;;;;;7.65;2.22;;;;;;;;;;5093034;28;20062;-55
2022/10/30 07:50:48;;;;;;;5.32;2.67;;;;;;;;;;5089633;28;20056;-56
2022/10/30 07:53:16;;;;;;;6.65;2.35;;;;;;;;;;5094648;28;20055;-56
2022/10/30 07:55:44;;;;;;;6.05;2.72;;;;;;;;;;5091970;28;20073;-54
2022/10/30 07:58:14;;;;;;;4.88;2.30;;;;;;;;;;5092664;28;20464;-56
2022/10/30 08:00:41;;;;;;;4.95;2.30;;;;;;;;;;5092016;28;20083;-56
2022/10/30 08:03:09;;;;;;;6.30;2.20;;;;;;;;;;5092464;28;20052;-56
2022/10/30 08:05:35;;;;;;;5.35;2.03;;;;;;;;;;5086306;28;20040;-56
2022/10/30 08:08:03;;;;;;;8.43;1.92;;;;;;;;;;5091242;28;20051;-55
2022/10/30 08:10:40;;;;;;;6.68;2.53;;;;;;;;;;5087795;28;20891;-55
2022/10/30 08:13:08;;;;;;;6.57;2.25;;;;;;;;;;5092943;28;20048;-52
2022/10/30 08:15:38;;;;;;;4.05;1.95;;;;;;;;;;5092398;28;20056;-54
2022/10/30 08:18:05;;;;;;;5.78;2.10;;;;;;;;;;5093224;28;20084;-53
2022/10/30 08:20:33;;;;;;;4.53;2.25;;;;;;;;;;5093110;28;20040;-55
2022/10/30 08:23:02;;;;;;;5.25;2.15;;;;;;;;;;5095499;28;20109;-55
2022/10/30 08:25:41;;;;;;;5.38;1.73;;;;;;;;;;5096770;28;20044;-52
2022/10/30 08:28:10;;;;;;;7.25;2.33;;;;;;;;;;5096492;28;20373;-52
2022/10/30 08:30:38;;;;;;;6.85;1.70;;;;;;;;;;5096563;28;20048;-55
2022/10/30 08:33:07;;;;;;;15.02;2.38;;;;;;;;;;5094021;28;20052;-53
2022/10/30 08:35:36;;;;;;;4.47;1.80;;;;;;;;;;5095633;28;20052;-56
2022/10/30 08:38:06;;;;;;;3.70;1.70;;;;;;;;;;5093800;28;20052;-56
2022/10/30 08:40:37;;;;;;;7.28;2.42;;;;;;;;;;5093968;28;20052;-55
2022/10/30 08:43:05;;;;;;;3.65;1.70;;;;;;;;;;5094459;28;20083;-56
2022/10/30 08:45:32;;;;;;;3.40;1.48;;;;;;;;;;5095896;28;20047;-52
2022/10/30 08:48:02;;;;;;;3.55;1.52;;;;;;;;;;5095463;28;20048;-55
2022/10/30 08:50:32;;;;;;;5.70;1.88;;;;;;;;;;5095261;28;20055;-55
2022/10/30 08:53:02;;;;;;;6.95;2.03;;;;;;;;;;5095791;28;20059;-56
2022/10/30 08:55:30;;;;;;;4.53;1.55;;;;;;;;;;5095685;28;20068;-55
2022/10/30 08:58:00;;;;;;;6.40;2.00;;;;;;;;;;5095648;28;20457;-55
2022/10/30 09:00:30;;;;;;;3.25;1.40;;;;;;;;;;5086451;28;20547;-53
2022/10/30 09:02:59;;;;;;;3.83;1.45;;;;;;;;;;5096154;28;20094;-50
2022/10/30 09:05:30;;;;;;;4.40;1.48;;;;;;;;;;5095283;28;20044;-52
2022/10/30 09:07:59;;;;;;;3.60;1.30;;;;;;;;;;5095250;28;20113;-50
2022/10/30 09:10:28;;;;;;;5.80;1.80;;;;;;;;;;5095489;28;20048;-50
2022/10/30 09:12:58;;;;;;;2.50;1.40;;;;;;;;;;5095466;28;20058;-51
2022/10/30 09:15:33;;;;;;;3.60;1.73;;;;;;;;;;5095640;28;20052;-52
2022/10/30 09:18:09;;;;;;;3.35;1.30;;;;;;;;;;5095425;28;20052;-50
2022/10/30 09:20:36;;;;;;;2.78;1.67;;;;;;;;;;5095355;28;20051;-54
2022/10/30 09:23:04;;;;;;;3.00;1.27;;;;;;;;;;5095552;28;20059;-53
2022/10/30 09:25:34;;;;;;;3.80;1.75;;;;;;;;;;5095005;28;20515;-50
2022/10/30 09:28:03;;;;;;;2.55;1.40;;;;;;;;;;5093375;28;20044;-50
2022/10/30 09:30:33;;;;;;;5.95;1.65;;;;;;;;;;5095195;28;20144;-52
2022/10/30 09:33:04;;;;;;;2.42;1.30;;;;;;;;;;5094922;28;20070;-51
2022/10/30 09:35:32;;;;;;;3.90;1.40;;;;;;;;;;5087044;28;20041;-50
2022/10/30 09:37:59;;;;;;;4.60;1.55;;;;;;;;;;5086320;28;20048;-53
2022/10/30 09:40:36;;;;;;;3.33;1.52;;;;;;;;;;5091628;28;20048;-53
2022/10/30 09:43:08;;;;;;;4.45;1.95;;;;;;;;;;5088789;28;20076;-53
2022/10/30 09:45:55;;;;;;;2.92;1.58;;;;;;;;;;5091488;28;20051;-53
2022/10/30 09:48:31;;;;;;;2.47;1.40;;;;;;;;;;5094678;28;20052;-50
2022/10/30 09:51:09;;;;;;;4.78;1.40;;;;;;;;;;5092087;28;20058;-50
2022/10/30 09:53:44;;;;;;;4.13;1.77;;;;;;;;;;5094588;28;20072;-50
2022/10/30 09:56:18;;;;;;;2.90;1.17;;;;;;;;;;5086143;28;20384;-51
2022/10/30 09:58:53;;;;;;;5.10;1.40;;;;;;;;;;5094371;28;20407;-50
2022/10/30 10:01:21;;;;;;;;;;;;;;;;;;5095422;28;20044;-50
2022/10/30 10:04:01;;;;;;;3.13;1.10;;;;;;;;;;5094597;28;19947;-50
2022/10/30 10:06:28;;;;;;;3.65;1.45;;;;;;;;;;5093963;28;20079;-50
2022/10/30 10:09:00;;;;;;;2.92;1.40;;;;;;;;;;5078709;28;20068;-50
2022/10/30 10:11:30;;;;;;;2.70;1.33;;;;;;;;;;5083997;28;20483;-50
2022/10/30 10:13:57;;;;;;;4.07;1.42;;;;;;;;;;5094702;28;20040;-52
2022/10/30 10:16:27;;;;;;;6.50;2.03;;;;;;;;;;5094612;28;20044;-50
2022/10/30 10:19:10;;;;;;;2.92;1.35;;;;;;;;;;5094293;28;20108;-53
2022/10/30 10:21:48;;;;;;;2.67;1.00;;;;;;;;;;5089667;28;20055;-50
2022/10/30 10:24:22;;;;;;;4.70;1.40;;;;;;;;;;5094239;28;20048;-51
2022/10/30 10:26:54;;;;;;;7.68;1.50;;;;;;;;;;5094461;28;20108;-51
2022/10/30 10:29:35;;;;;;;3.60;1.23;;;;;;;;;;5094257;28;20055;-50
2022/10/30 10:32:19;;;;;;;3.17;1.35;;;;;;;;;;5081498;28;20052;-54
2022/10/30 10:34:55;;;;;;;3.70;1.35;;;;;;;;;;5090451;28;20045;-50
2022/10/30 10:37:30;;;;;;;2.85;1.33;;;;;;;;;;5089012;28;20187;-50
2022/10/30 10:40:04;;;;;;;2.28;1.15;;;;;;;;;;5093109;28;20047;-51
2022/10/30 10:42:37;;;;;;;3.13;1.40;;;;;;;;;;5097698;28;20052;-53
2022/10/30 10:45:12;;;;;;;4.85;1.80;;;;;;;;;;5093790;28;20079;-52
2022/10/30 10:47:52;;;;;;;;;;;;;;;;;;5094306;28;20044;-53
2022/10/30 10:50:26;;;;;;;3.72;1.23;;;;;;;;;;5091534;28;20431;-53
2022/10/30 10:52:57;;;;;;;1.90;1.00;;;;;;;;;;5089401;28;20358;-51
2022/10/30 10:55:26;;;;;;;3.70;1.23;;;;;;;;;;5092018;28;20076;-50
2022/10/30 10:57:57;;;;;;;2.35;1.17;;;;;;;;;;5093622;28;20043;-50
2022/10/30 11:00:34;;;;;;;2.63;1.20;;;;;;;;;;5089013;28;20059;-51
2022/10/30 11:03:05;;;;;;;3.13;1.08;;;;;;;;;;5091363;28;20565;-50
2022/10/30 11:05:37;;;;;;;3.30;1.20;;;;;;;;;;5078759;28;20072;-51
2022/10/30 11:08:11;;;;;;;3.88;1.33;;;;;;;;;;5091577;28;20051;-53
2022/10/30 11:10:41;;;;;;;5.80;1.52;;;;;;;;;;5078247;28;20072;-52
2022/10/30 11:13:21;;;;;;;3.85;1.40;;;;;;;;;;5091618;28;20058;-53
2022/10/30 11:15:54;;;;;;;5.05;1.90;;;;;;;;;;5091200;28;20088;-53
2022/10/30 11:18:24;;;;;;;3.78;1.95;;;;;;;;;;5091856;28;20063;-53
2022/10/30 11:21:10;;;;;;;10.30;3.25;;;;;;;;;;5091710;28;20044;-50
2022/10/30 11:23:40;;;;;;;8.10;3.08;;;;;;;;;;5090878;28;20074;-51
2022/10/30 11:26:27;;;;;;;10.70;4.18;;;;;;;;;;5090781;28;20449;-53
2022/10/30 11:28:56;;;;;;;13.90;5.75;;;;;;;;;;5079135;28;20048;-51
2022/10/30 11:31:33;;;;;;;13.43;5.57;;;;;;;;;;5089372;28;20461;-50
2022/10/30 11:34:13;;;;;;;9.32;4.25;;;;;;;;;;5091273;28;20600;-53
2022/10/30 11:36:43;;;;;;;11.75;4.65;;;;;;;;;;5087526;28;20055;-49
2022/10/30 11:39:17;;;;;;;11.80;5.35;;;;;;;;;;5085619;28;20063;-50
2022/10/30 11:41:47;;;;;;;13.13;5.55;;;;;;;;;;5092720;28;20440;-50
2022/10/30 11:44:16;;;;;;;8.30;3.78;;;;;;;;;;5091297;28;20063;-50
2022/10/30 11:46:47;;;;;;;5.93;3.20;;;;;;;;;;5092272;28;20055;-50
2022/10/30 11:49:24;;;;;;;3.63;2.00;;;;;;;;;;5092179;28;20437;-50
2022/10/30 11:52:01;;;;;;;5.15;2.33;;;;;;;;;;5092390;28;20059;-50
2022/10/30 11:54:35;;;;;;;3.78;2.45;;;;;;;;;;5090447;28;20055;-50
2022/10/30 11:57:04;;;;;;;4.45;2.10;;;;;;;;;;5092239;28;20044;-50
2022/10/30 11:59:31;;;;;;;4.25;1.80;;;;;;;;;;5092716;28;20055;-49
2022/10/30 12:02:00;;;;;;;6.68;2.17;;;;;;;;;;5092340;28;20051;-50
2022/10/30 12:04:37;;;;;;;5.22;2.30;;;;;;;;;;5092253;28;20480;-50
2022/10/30 12:07:26;;;;;;;8.43;2.22;;;;;;;;;;5092122;28;20518;-50
2022/10/30 12:10:01;;;;;;;6.15;2.70;;;;;;;;;;5092795;28;20235;-50
2022/10/30 12:12:40;;;;;;;2.92;1.52;;;;;;;;;;5092613;28;20109;-50
2022/10/30 12:15:19;;;;;;;5.72;1.80;;;;;;;;;;5092604;28;20048;-50
2022/10/30 12:17:51;;;;;;;8.02;2.00;;;;;;;;;;5088668;28;20040;-50
2022/10/30 12:20:20;;;;;;;4.07;1.85;;;;;;;;;;5089140;28;20044;-53
2022/10/30 12:22:50;;;;;;;4.70;2.13;;;;;;;;;;5081580;28;20490;-50
2022/10/30 12:25:21;;;;;;;7.30;1.90;;;;;;;;;;5090315;28;20484;-49
2022/10/30 12:27:50;;;;;;;3.65;1.55;;;;;;;;;;5092749;28;20040;-50
2022/10/30 12:30:26;;;;;;;2.75;1.63;;;;;;;;;;5092261;28;20345;-49
2022/10/30 12:33:03;;;;;;;5.65;1.55;;;;;;;;;;5091697;28;20051;-50
2022/10/30 12:35:38;;;;;;;3.33;1.60;;;;;;;;;;5083112;28;20140;-50
2022/10/30 12:38:06;;;;;;;9.90;3.97;;;;;;;;;;5089411;28;20044;-50
2022/10/30 12:40:54;;;;;;;6.43;3.20;;;;;;;;;;5092278;28;20473;-50
2022/10/30 12:43:31;;;;;;;4.95;2.75;;;;;;;;;;5080231;28;20433;-52
2022/10/30 12:46:01;;;;;;;8.32;3.45;;;;;;;;;;5091665;28;20517;-50
2022/10/30 12:48:36;;;;;;;6.15;2.45;;;;;;;;;;5091981;28;20480;-50
2022/10/30 12:51:14;;;;;;;7.38;3.00;;;;;;;;;;5091363;28;20476;-53
2022/10/30 12:53:52;;;;;;;7.18;2.58;;;;;;;;;;5091086;28;20055;-51
2022/10/30 12:56:38;;;;;;;5.13;2.60;;;;;;;;;;5076194;28;20063;-50
2022/10/30 12:59:17;;;;;;;6.95;2.50;;;;;;;;;;5089881;28;20079;-50
2022/10/30 13:01:53;;;;;;;6.03;2.88;;;;;;;;;;5091942;28;20048;-50
2022/10/30 13:04:22;;;;;;;6.68;3.30;;;;;;;;;;5089953;28;20698;-51
2022/10/30 13:06:59;;;;;;;5.68;2.88;;;;;;;;;;5090939;28;20453;-53
2022/10/30 13:09:33;;;;;;;8.13;2.80;;;;;;;;;;5086516;28;20044;-53
2022/10/30 13:12:10;;;;;;;6.00;2.10;;;;;;;;;;5095096;28;20040;-52
2022/10/30 13:14:41;;;;;;;5.38;2.60;;;;;;;;;;5096020;28;20052;-51
2022/10/30 13:17:11;;;;;;;5.88;3.20;;;;;;;;;;5094879;28;20109;-52
2022/10/30 13:19:42;;;;;;;5.38;2.97;;;;;;;;;;5095558;28;20052;-50
2022/10/30 13:22:14;;;;;;;4.65;2.58;;;;;;;;;;5095620;28;20090;-51
2022/10/30 13:24:52;;;;;;;6.15;2.72;;;;;;;;;;5095483;28;20074;-50
2022/10/30 13:27:40;;;;;;;5.72;2.50;;;;;;;;;;5095086;28;20683;-49
2022/10/30 13:30:13;;;;;;;6.97;2.30;;;;;;;;;;5090997;28;20537;-50
2022/10/30 13:32:51;;;;;;;4.97;2.33;;;;;;;;;;5085719;28;20060;-50
2022/10/30 13:35:27;;;;;;;5.13;2.22;;;;;;;;;;5095191;28;20113;-50
2022/10/30 13:37:58;;;;;;;4.68;2.00;;;;;;;;;;5094595;28;20044;-50
2022/10/30 13:40:29;;;;;;;5.57;2.35;;;;;;;;;;5094501;28;20055;-50
2022/10/30 13:43:05;;;;;;;4.68;2.70;;;;;;;;;;5094662;28;20056;-50
2022/10/30 13:45:58;;;;;;;4.53;2.20;;;;;;;;;;5095485;28;20059;-50
2022/10/30 13:48:54;;;;;;;8.50;3.63;;;;;;;;;;5085457;28;20377;-50
2022/10/30 13:51:42;;;;;;;8.88;4.15;;;;;;;;;;5093441;28;20056;-51
2022/10/30 13:54:15;;;;;;;9.60;5.18;;;;;;;;;;5083540;28;20524;-51
2022/10/30 13:56:44;;;;;;;11.65;6.00;;;;;;;;;;5094791;28;20052;-52
2022/10/30 13:59:21;;;;;;;9.13;5.00;;;;;;;;;;5094260;28;20055;-51
2022/10/30 14:01:53;;;;;;;9.07;4.28;;;;;;;;;;5094350;28;20052;-50
2022/10/30 14:04:24;;;;;;;9.73;4.38;;;;;;;;;;5083362;28;20055;-50
2022/10/30 14:06:55;;;;;;;7.32;3.70;;;;;;;;;;5094623;28;20058;-49
2022/10/30 14:09:29;;;;;;;10.27;4.88;;;;;;;;;;5093412;28;20506;-53
2022/10/30 14:11:58;;;;;;;9.70;4.38;;;;;;;;;;5094375;28;20354;-50
2022/10/30 14:14:39;;;;;;;5.00;3.10;;;;;;;;;;5093829;28;20396;-51
2022/10/30 14:17:10;;;;;;;4.85;2.80;;;;;;;;;;5093688;28;20047;-51
2022/10/30 14:19:57;;;;;;;4.05;2.28;;;;;;;;;;5094623;28;20055;-50
2022/10/30 14:22:27;;;;;;;6.95;2.72;;;;;;;;;;5094065;28;20062;-51
2022/10/30 14:24:55;;;;;;;5.65;2.70;;;;;;;;;;5094235;28;20052;-53
2022/10/30 14:27:28;;;;;;;4.20;2.35;;;;;;;;;;5094556;28;20055;-50
2022/10/30 14:30:01;;;;;;;5.05;2.50;;;;;;;;;;5086753;28;20466;-53
2022/10/30 14:32:47;;;;;;;4.43;2.28;;;;;;;;;;5094131;28;20052;-50
2022/10/30 14:35:38;;;;;;;4.60;2.10;;;;;;;;;;5081393;28;20060;-50
2022/10/30 14:38:23;;;;;;;5.65;2.13;;;;;;;;;;5094086;28;20057;-49
2022/10/30 14:41:03;;;;;;;6.43;2.47;;;;;;;;;;5094235;28;20063;-50
2022/10/30 14:43:36;;;;;;;5.82;2.80;;;;;;;;;;5093735;28;20056;-50
2022/10/30 14:46:14;;;;;;;6.68;3.17;;;;;;;;;;5090952;28;20081;-50
2022/10/30 14:48:45;;;;;;;10.73;4.93;;;;;;;;;;5093736;28;20044;-50
2022/10/30 14:51:16;;;;;;;12.30;5.57;;;;;;;;;;5093613;28;20056;-50
2022/10/30 14:53:53;;;;;;;10.73;6.22;;;;;;;;;;5093521;28;20052;-50
2022/10/30 14:56:29;;;;;;;9.60;5.78;;;;;;;;;;5093598;28;20054;-50
2022/10/30 14:59:16;;;;;;;12.40;7.03;;;;;;;;;;5092989;28;20046;-50
2022/10/30 15:01:51;;;;;;;12.85;6.43;;;;;;;;;;5092860;28;20060;-51
2022/10/30 15:04:18;;;;;;;;;;;;;;;;;;5089288;28;20051;-50
2022/10/30 15:06:55;;;;;;;12.00;5.43;;;;;;;;;;5093204;28;19924;-50
2022/10/30 15:09:27;;;;;;;9.63;5.28;;;;;;;;;;5093376;28;20057;-50
2022/10/30 15:12:05;;;;;;;9.48;4.68;;;;;;;;;;5093486;28;20044;-50